Adams, NE (68301)

12:38 AM CST on December 04, 2016 (GMT -0600)
Woodland Plaza | | Change Station

Elev 1283 ft 40.63 °N, 96.63 °W | Updated 54 seconds ago

Light Rain
Light Rain
32.5 °F
Feels Like 32 °F
N
0.0
Wind Variable Wind from South

Today
High -- | Low -- °F
--% Chance of Precip.
Yesterday
High -- | Low -- °F
Precip. -- in
Pressure 30.05 in
Visibility 5.0 miles
Clouds Scattered Clouds 1300 ft
Scattered Clouds 2800 ft
Overcast 3600 ft
Windchill 32 °F
Dew Point 32 °F
Humidity 98%
Rainfall 0.00 in
Snow Depth Not available.
7:33 AM 4:59 PM
Waxing Crescent, 20% visible
METAR KBIE 040635Z AUTO 24006KT 5SM -RA SCT013 SCT028 OVC036 02/01 A3005 RMK AO2 P0001 T00150011
Pressure 30.05 in
Visibility 5.0 miles
Clouds Scattered Clouds 1300 ft
Scattered Clouds 2800 ft
Overcast 3600 ft
Windchill 32 °F
Dew Point 32 °F
Humidity 98%
Rainfall 0.00 in
Snow Depth Not available.
7:33 AM 4:59 PM
Waxing Crescent, 20% visible
METAR KBIE 040635Z AUTO 24006KT 5SM -RA SCT013 SCT028 OVC036 02/01 A3005 RMK AO2 P0001 T00150011

10-Day Weather Forecast

Almanac

Astronomy

Dec. 04, 2016 Rise Set
Actual Time
Civil Twilight
Nautical Twilight
Astronomical Twilight
Moon
Length of Visible Light
Length of Day
Tomorrow will be .
, % of the Moon is Illuminated

Today's Extremes

State Highs State Lows

Community

WunderPhotos

Upload Photos

1,955,587 photos uploaded!

WunderBlog® & News

Nearby

Air Quality

  Air Quality AQ Index Pollutant
Not available.

Snow Depth

Station Depth Elevation

Earthquake Activity

City Distance Mag. Time & Date
Minimum magnitude displayed is 2.5.

Coastal Water Temperatures

Place Temperature

Stations

Nearby Weather Stations

Station Location Temp. Windchill Dew Point Humidity Wind Precip. Elev Updated Type
                   

Watches & Warnings

There are currently no watches in effect.